Flight Track Log - Related Links

Times and Time Zones

All times are in EDT time to prevent confusion due to time zone crossing. See the N101MA flight status page for this flight to view local times or setup timezone preferences in your user account.

Time Position Orientation Groundspeed Altitude Reporting Facility
EDT Latitude Longitude Course Direction KTS MPH feet Rate Location/Type
Tue 08:48:27 PM 38.3639 -75.0939 342° North 130 150 2,400  Level Washington Center
Tue 08:49:04 PM 38.3828 -75.1017 342° North 137 158 3,000 857 Climbing Washington Center
Tue 08:50:05 PM 38.4203 -75.1200 339° North 137 158 3,800 216 Climbing Washington Center
Tue 08:52:00 PM 38.4901 -75.1911 345° North  Level FlightAware Approximate
Tue 08:59:00 PM 38.7784 -75.3149 342° North  Level FlightAware Approximate
Tue 09:00:00 PM 38.8196 -75.3323 342° North  Level FlightAware Approximate
Tue 09:01:00 PM 38.8609 -75.3496 342° North  Level FlightAware Approximate
Tue 09:02:00 PM 38.9022 -75.3670 342° North  Level FlightAware Approximate
Tue 09:03:00 PM 38.9435 -75.3844 342° North  Level FlightAware Approximate
Tue 09:04:00 PM 38.9848 -75.4018 342° North  Level FlightAware Approximate
Tue 09:05:00 PM 39.0261 -75.4192 342° North  Level FlightAware Approximate
Tue 09:06:00 PM 39.0674 -75.4367 342° North  Level FlightAware Approximate
Tue 09:07:00 PM 39.1087 -75.4542 342° North  Level FlightAware Approximate
Tue 09:07:34 PM 39.1667 -75.5167 348° North 177 204 7,000  Level Philadelphia TRACON
Tue 09:08:00 PM 39.1499 -75.4717 342° North  Level FlightAware Approximate
Tue 09:08:10 PM 39.2000 -75.5167 360° North 169 194 7,000  Level Philadelphia TRACON
Tue 09:09:00 PM 39.1912 -75.4892 342° North  Level FlightAware Approximate
Tue 09:09:16 PM 39.2500 -75.5333 346° North 168 193 7,000  Level Philadelphia TRACON
Tue 09:10:00 PM 39.2330 -75.5041 349° North  Level FlightAware Approximate
Tue 09:10:16 PM 39.3000 -75.5333 360° North 172 198 7,000  Level Philadelphia TRACON
Tue 09:11:00 PM 39.2757 -75.5147 349° North  Level FlightAware Approximate
Tue 09:11:16 PM 39.3333 -75.5500 339° North 174 200 7,000  Level Philadelphia TRACON
Tue 09:12:00 PM 39.3181 -75.5266 348° North  Level FlightAware Approximate
Tue 09:12:16 PM 39.3833 -75.5500 360° North 173 199 7,000  Level Philadelphia TRACON
Tue 09:13:00 PM 39.3605 -75.5387 348° North  Level FlightAware Approximate
Tue 09:13:16 PM 39.4333 -75.5667 346° North 176 203 7,000  Level Philadelphia TRACON
Tue 09:14:10 PM 39.4833 -75.5667 360° North 174 200 7,000  Level Philadelphia TRACON
Tue 09:15:10 PM 39.5333 -75.5833 346° North 175 201 7,000  Level Philadelphia TRACON
Tue 09:16:04 PM 39.5667 -75.5833 360° North 176 203 7,000  Level Philadelphia TRACON
Tue 09:17:04 PM 39.6167 -75.6000 346° North 178 205 7,000  Level Philadelphia TRACON
Tue 09:18:10 PM 39.6667 -75.6000 360° North 176 203 7,000  Level Philadelphia TRACON
Tue 09:19:10 PM 39.7167 -75.6167 346° North 175 201 7,000  Level Philadelphia TRACON
Tue 09:20:04 PM 39.7667 -75.6333 346° North 175 201 7,000  Level Philadelphia TRACON
Tue 09:21:10 PM 39.8167 -75.6333 360° North 176 203 7,000  Level Philadelphia TRACON
Tue 09:22:10 PM 39.8667 -75.6500 346° North 174 200 7,000  Level Philadelphia TRACON
Tue 09:23:04 PM 39.9000 -75.6667 339° North 174 200 7,000  Level Philadelphia TRACON
Tue 09:24:04 PM 39.9500 -75.6500 14° North 184 212 7,000  Level Philadelphia TRACON
Tue 09:25:10 PM 40.0000 -75.6333 14° North 183 211 7,000  Level Philadelphia TRACON
Tue 09:26:10 PM 40.0500 -75.6167 14° North 180 207 7,000  Level Philadelphia TRACON
Tue 09:28:00 PM 40.1331 -75.5835 17° North  Level FlightAware Approximate
Tue 09:35:00 PM 40.4517 -75.6354 342° North  Level FlightAware Approximate
Tue 09:36:00 PM 40.4968 -75.6542 342° North  Level FlightAware Approximate
Tue 09:37:00 PM 40.5420 -75.6730 342° North  Level FlightAware Approximate
Tue 09:38:00 PM 40.5806 -75.6617 50° Northeast  Level FlightAware Approximate
Tue 09:39:00 PM 40.6113 -75.6141 50° Northeast  Level FlightAware Approximate
Tue 09:40:00 PM 40.6420 -75.5664 50° Northeast  Level FlightAware Approximate
Tue 09:41:00 PM 40.6726 -75.5187 50° Northeast  Level FlightAware Approximate
Tue 09:42:00 PM 40.7032 -75.4710 50° Northeast  Level FlightAware Approximate
Tue 09:43:00 PM 40.7433 -75.4500 North  Level FlightAware Approximate
Tue 09:44:00 PM 40.7907 -75.4500 North  Level FlightAware Approximate
Tue 09:45:00 PM 40.8381 -75.4500 North  Level FlightAware Approximate
Tue 09:46:00 PM 40.8855 -75.4500 North  Level FlightAware Approximate
Tue 09:47:00 PM 40.9329 -75.4500 North  Level FlightAware Approximate
Tue 09:48:00 PM 40.9803 -75.4500 North  Level FlightAware Approximate
Tue 09:49:00 PM 41.0277 -75.4500 North  Level FlightAware Approximate
Tue 09:50:00 PM 41.0728 -75.4667 North  Level FlightAware Approximate
Tue 09:51:00 PM 41.1203 -75.4667 North  Level FlightAware Approximate
Tue 09:52:00 PM 41.1677 -75.4667 North  Level FlightAware Approximate
Tue 09:53:00 PM 41.2151 -75.4667 North  Level FlightAware Approximate
Tue 09:54:00 PM 41.2395 -75.4577 147° Southeast  Level FlightAware Approximate
Tue 09:55:00 PM 41.1997 -75.4235 147° Southeast  Level FlightAware Approximate
Tue 09:56:00 PM 41.1598 -75.3893 147° Southeast  Level FlightAware Approximate
Tue 09:57:00 PM 41.1377 -75.3801 147° Southeast  Level Estimated
Tue 09:58:00 PM 41.1377 -75.3801 147° Southeast  Level Estimated
Tue 09:59:00 PM 41.1377 -75.3801 147° Southeast  Level Estimated
Tue 10:00:00 PM 41.1377 -75.3801 147° Southeast  Level Estimated
Tue 10:01:00 PM 41.1377 -75.3801 147° Southeast  Level Estimated
Tue 10:02:00 PM 41.1377 -75.3801 147° Southeast  Level Estimated

Login

Don't have an account? Register now (free) for customized features, flight alerts, and more!